createdAt,value
2017-08-26T13:44:15.889Z,29.02
2017-08-26T13:45:37.813Z,28.95
2017-08-26T13:47:00.330Z,29.43
2017-08-26T13:48:22.843Z,29.6
2017-08-26T13:49:45.725Z,29.79
2017-08-26T13:51:08.353Z,29.86
2017-08-26T13:52:30.537Z,29.78
2017-08-26T13:53:53.061Z,29.49
2017-08-26T13:55:15.768Z,29
2017-08-26T13:56:38.257Z,28.48
2017-08-26T13:58:00.838Z,28.52
2017-08-26T13:59:23.017Z,28.71
2017-08-26T14:00:45.972Z,28.92
2017-08-26T14:02:08.183Z,29.06
2017-08-26T14:03:30.376Z,28.86
2017-08-26T14:04:52.292Z,28.88
2017-08-26T14:06:15.093Z,28.74
2017-08-26T14:07:37.259Z,28.68
2017-08-26T14:08:59.761Z,28.85
2017-08-26T14:10:21.650Z,28.62
2017-08-26T14:11:44.491Z,28.51
2017-08-26T14:13:06.334Z,28.46
2017-08-26T14:14:28.493Z,28.41
2017-08-26T14:15:51.908Z,28.67
2017-08-26T14:17:15.102Z,28.7
2017-08-26T14:18:37.622Z,28.88
2017-08-26T14:20:00.161Z,28.89
2017-08-26T14:21:22.163Z,28.96
2017-08-26T14:22:44.471Z,29.05
2017-08-26T14:24:06.673Z,28.59
2017-08-26T14:25:28.876Z,28.14
2017-08-26T14:26:51.077Z,27.85
2017-08-26T14:28:13.914Z,27.57
2017-08-26T14:29:36.409Z,27.57
2017-08-26T14:30:58.918Z,27.6
2017-08-26T14:32:21.514Z,27.4
2017-08-26T14:33:44.412Z,27.41
2017-08-26T14:35:06.274Z,27.59
2017-08-26T14:36:28.764Z,27.7
2017-08-26T14:37:50.925Z,27.85
2017-08-26T14:39:13.841Z,27.88
2017-08-26T14:40:36.454Z,27.84
2017-08-26T14:41:58.971Z,27.84
2017-08-26T14:43:20.835Z,27.87
2017-08-26T14:44:43.272Z,27.72
2017-08-26T14:46:05.854Z,27.63
2017-08-26T14:47:27.699Z,27.44
2017-08-26T14:48:49.893Z,27.03
2017-08-26T14:50:12.223Z,26.94
2017-08-26T14:51:34.723Z,26.88
2017-08-26T14:52:56.896Z,26.82
2017-08-26T14:54:19.086Z,26.66
2017-08-26T14:55:41.251Z,26.65
2017-08-26T14:57:02.939Z,26.55
2017-08-26T14:58:24.562Z,26.5
2017-08-26T14:59:47.071Z,26.5
2017-08-26T15:01:09.554Z,26.51
2017-08-26T15:02:31.870Z,26.48
2017-08-26T15:03:54.152Z,26.55
2017-08-26T15:05:16.326Z,26.39
2017-08-26T15:06:39.123Z,26.47
2017-08-26T15:08:00.970Z,26.5
2017-08-26T15:09:23.149Z,26.58
2017-08-26T15:10:45.683Z,26.65
2017-08-26T15:12:08.228Z,26.88
2017-08-26T15:13:30.425Z,26.95
2017-08-26T15:14:52.622Z,27.04
2017-08-26T15:16:15.132Z,27.14
2017-08-26T15:17:37.631Z,27.03
2017-08-26T15:18:59.492Z,26.85
2017-08-26T15:20:22.023Z,26.88
2017-08-26T15:21:44.528Z,26.89
2017-08-26T15:23:06.684Z,26.88
2017-08-26T15:24:29.221Z,26.67
2017-08-26T15:25:51.745Z,26.67
2017-08-26T15:27:13.954Z,26.62
2017-08-26T15:28:36.541Z,26.57
2017-08-26T15:29:59.321Z,26.5
2017-08-26T15:31:20.929Z,26.62
2017-08-26T15:32:42.790Z,26.62
2017-08-26T15:34:05.202Z,26.48
2017-08-26T15:35:27.739Z,26.43
2017-08-26T15:36:49.943Z,26.4
2017-08-26T15:38:11.884Z,26.48
2017-08-26T15:39:34.432Z,26.52
2017-08-26T15:40:56.602Z,26.69
2017-08-26T15:42:18.650Z,26.81
2017-08-26T15:43:40.852Z,26.94
2017-08-26T15:45:03.407Z,26.99
2017-08-26T15:46:25.979Z,26.88
2017-08-26T15:47:48.188Z,26.58
2017-08-26T15:49:10.447Z,26.48
2017-08-26T15:50:32.714Z,26.48
2017-08-26T15:51:55.353Z,26.36
2017-08-26T15:53:16.959Z,26.36
2017-08-26T15:54:38.800Z,26.17
2017-08-26T15:56:01.341Z,26.2
2017-08-26T15:57:23.629Z,26.17
2017-08-26T15:58:45.516Z,26.12
2017-08-26T16:00:07.353Z,26.07
2017-08-26T16:01:30.011Z,26.01
2017-08-26T16:02:52.251Z,25.94
2017-08-26T16:04:14.750Z,25.97
2017-08-26T16:05:36.948Z,25.88
2017-08-26T16:06:58.961Z,25.77
2017-08-26T16:08:20.496Z,25.64
2017-08-26T16:09:42.972Z,25.35
2017-08-26T16:11:04.512Z,25.35
2017-08-26T16:12:26.729Z,25.38
2017-08-26T16:13:48.895Z,25.35
2017-08-26T16:15:11.160Z,25.3
2017-08-26T16:16:33.644Z,25.36
2017-08-26T16:17:56.131Z,25.32
2017-08-26T16:19:18.298Z,25.25
2017-08-26T16:20:40.882Z,25.2
2017-08-26T16:22:03.430Z,25.08
2017-08-26T16:23:25.589Z,25.15
2017-08-26T16:24:47.760Z,25.09
2017-08-26T16:26:10.300Z,25.24
2017-08-26T16:27:32.155Z,25.21
2017-08-26T16:28:54.714Z,25.17
2017-08-26T16:30:16.880Z,25.17
2017-08-26T16:31:39.051Z,25.1
2017-08-26T16:33:01.593Z,25.17
2017-08-26T16:34:24.521Z,25.18
2017-08-26T16:35:47.021Z,25.13
2017-08-26T16:37:09.209Z,25.14
2017-08-26T16:38:31.404Z,25.08
2017-08-26T16:39:53.965Z,25.15
2017-08-26T16:41:15.828Z,25.1
2017-08-26T16:42:38.323Z,25.13
2017-08-26T16:44:00.918Z,25.09
2017-08-26T16:45:23.442Z,25.21
2017-08-26T16:46:45.276Z,25.23
2017-08-26T16:48:07.761Z,25.3
2017-08-26T16:49:29.631Z,25.36
2017-08-26T16:50:52.094Z,25.35
2017-08-26T16:52:14.313Z,25.43
2017-08-26T16:53:36.644Z,25.15
2017-08-26T16:54:58.823Z,25.17
2017-08-26T16:56:21.682Z,25.13
2017-08-26T16:57:43.840Z,24.93
2017-08-26T16:59:06.332Z,24.78
2017-08-26T17:00:28.511Z,24.62
2017-08-26T17:01:50.810Z,24.47
2017-08-26T17:03:13.013Z,24.43
2017-08-26T17:04:35.546Z,24.3
2017-08-26T17:05:57.417Z,24.3
2017-08-26T17:07:19.924Z,24.31
2017-08-26T17:08:42.567Z,24.42
2017-08-26T17:10:05.063Z,24.39
2017-08-26T17:11:27.241Z,24.37
2017-08-26T17:12:49.751Z,24.45
2017-08-26T17:14:12.310Z,24.4
2017-08-26T17:15:34.802Z,24.35
2017-08-26T17:16:57.380Z,24.42
2017-08-26T17:18:19.015Z,24.31
2017-08-26T17:19:41.170Z,24.34
2017-08-26T17:21:03.403Z,24.31
2017-08-26T17:22:25.265Z,24.31
2017-08-26T17:23:47.389Z,24.32
2017-08-26T17:25:09.249Z,24.31
2017-08-26T17:26:30.803Z,24.2
2017-08-26T17:27:53.021Z,24.16
2017-08-26T17:29:14.902Z,24.13
2017-08-26T17:30:37.415Z,23.93
2017-08-26T17:31:59.602Z,23.8
2017-08-26T17:33:21.495Z,23.8
2017-08-26T17:34:44.068Z,23.76
2017-08-26T17:36:05.604Z,23.76
2017-08-26T17:37:27.827Z,23.68
2017-08-26T17:38:49.991Z,23.55
2017-08-26T17:40:12.206Z,23.5
2017-08-26T17:41:34.075Z,23.4
2017-08-26T17:42:56.263Z,23.22
2017-08-26T17:44:18.520Z,23.22
2017-08-26T17:45:40.907Z,23.19
2017-08-26T17:47:03.423Z,23.09
2017-08-26T17:48:25.920Z,22.91
2017-08-26T17:49:48.211Z,22.86
2017-08-26T17:51:10.792Z,22.91
2017-08-26T17:52:32.995Z,22.85
2017-08-26T17:53:55.175Z,22.7
2017-08-26T17:55:17.658Z,22.65
2017-08-26T17:56:40.223Z,22.72
2017-08-26T17:58:02.377Z,22.7
2017-08-26T17:59:24.562Z,22.7
2017-08-26T18:00:47.063Z,22.58
2017-08-26T18:02:09.648Z,22.49
2017-08-26T18:03:31.989Z,22.45
2017-08-26T18:04:54.152Z,22.47
2017-08-26T18:06:15.990Z,22.36
2017-08-26T18:07:38.724Z,22.25
2017-08-26T18:09:00.577Z,22.31
2017-08-26T18:10:22.438Z,22.22
2017-08-26T18:11:44.317Z,22.15
2017-08-26T18:13:07.184Z,22.22
2017-08-26T18:14:29.032Z,22.12
2017-08-26T18:15:50.903Z,22.07
2017-08-26T18:17:12.803Z,21.99
2017-08-26T18:18:35.283Z,22.05
2017-08-26T18:19:57.770Z,21.98
2017-08-26T18:21:19.982Z,21.99
2017-08-26T18:22:41.835Z,21.86
2017-08-26T18:24:04.352Z,21.83
2017-08-26T18:25:26.982Z,21.75
2017-08-26T18:26:48.833Z,21.74
2017-08-26T18:28:10.071Z,21.67
2017-08-26T18:29:32.484Z,21.65
2017-08-26T18:30:54.342Z,21.44
2017-08-26T18:32:16.192Z,21.53
2017-08-26T18:33:38.495Z,21.43
2017-08-26T18:35:01.279Z,21.35
2017-08-26T18:36:23.322Z,21.34
2017-08-26T18:37:45.840Z,21.25
2017-08-26T18:39:08.044Z,21.21
2017-08-26T18:40:30.592Z,21.16
2017-08-26T18:41:52.826Z,21.07
2017-08-26T18:43:15.030Z,20.99
2017-08-26T18:44:37.582Z,20.99
2017-08-26T18:45:59.675Z,20.79
2017-08-26T18:47:21.829Z,20.76
2017-08-26T18:48:44.335Z,20.62
2017-08-26T18:50:06.639Z,20.54
2017-08-26T18:51:29.333Z,20.43
2017-08-26T18:52:51.333Z,20.31
2017-08-26T18:54:13.844Z,20.17
2017-08-26T18:55:36.350Z,20.11
2017-08-26T18:56:58.563Z,20.06
2017-08-26T18:58:20.435Z,20.02
2017-08-26T18:59:42.614Z,19.95
2017-08-26T19:01:05.153Z,19.87
2017-08-26T19:02:27.746Z,19.77
2017-08-26T19:03:49.612Z,19.71
2017-08-26T19:05:11.806Z,19.55
2017-08-26T19:06:33.973Z,19.46
2017-08-26T19:07:56.186Z,19.44
2017-08-26T19:09:17.765Z,19.39
2017-08-26T19:10:39.393Z,19.37
2017-08-26T19:12:01.579Z,19.21
2017-08-26T19:13:24.422Z,19.25
2017-08-26T19:14:46.292Z,19.23
2017-08-26T19:16:08.839Z,19.29
2017-08-26T19:17:31.025Z,19.16
2017-08-26T19:18:53.548Z,19.26
2017-08-26T19:20:15.723Z,19.26
2017-08-26T19:21:38.026Z,19.21
2017-08-26T19:23:00.215Z,19.19
2017-08-26T19:24:22.428Z,19.28
2017-08-26T19:25:44.912Z,19.16
2017-08-26T19:27:07.550Z,19.21
2017-08-26T19:28:29.743Z,19.21
2017-08-26T19:29:52.469Z,19.22
2017-08-26T19:31:14.641Z,19.16
2017-08-26T19:32:35.835Z,19.06
2017-08-26T19:33:57.371Z,19.02
2017-08-26T19:35:19.481Z,18.95
2017-08-26T19:36:41.342Z,18.92
2017-08-26T19:38:03.907Z,18.87
2017-08-26T19:39:26.414Z,18.91
2017-08-26T19:40:48.681Z,18.9
2017-08-26T19:42:10.645Z,18.87
2017-08-26T19:43:32.166Z,18.8
2017-08-26T19:44:54.692Z,18.76
2017-08-26T19:46:16.571Z,18.75
2017-08-26T19:47:38.446Z,18.67
2017-08-26T19:49:00.312Z,18.73
2017-08-26T19:50:22.913Z,18.72
2017-08-26T19:51:45.755Z,18.67
2017-08-26T19:53:08.270Z,18.52
2017-08-26T19:54:30.832Z,18.6
2017-08-26T19:55:52.686Z,18.57
2017-08-26T19:57:15.664Z,18.51
2017-08-26T19:58:37.500Z,18.44
2017-08-26T20:00:00.126Z,18.5
2017-08-26T20:01:22.751Z,18.42
2017-08-26T20:02:44.947Z,18.44
2017-08-26T20:04:06.806Z,18.37
2017-08-26T20:05:28.364Z,18.33
2017-08-26T20:06:50.033Z,18.27
2017-08-26T20:08:12.903Z,18.27
2017-08-26T20:09:35.408Z,18.26
2017-08-26T20:10:57.635Z,18.14
2017-08-26T20:12:19.167Z,18.2
2017-08-26T20:13:42.083Z,18.15
2017-08-26T20:15:04.239Z,18.17
2017-08-26T20:16:26.080Z,18.05
2017-08-26T20:17:48.241Z,18.15
2017-08-26T20:19:11.054Z,18.08
2017-08-26T20:20:33.545Z,18.11
2017-08-26T20:21:56.131Z,18.1
2017-08-26T20:23:18.634Z,18.11
2017-08-26T20:24:41.454Z,18.07
2017-08-26T20:26:03.305Z,18.1
2017-08-26T20:27:25.483Z,18.08
2017-08-26T20:28:47.633Z,18.18
2017-08-26T20:30:09.474Z,18.14
2017-08-26T20:31:31.615Z,18.2
2017-08-26T20:32:54.222Z,18.15
2017-08-26T20:34:16.066Z,18.18
2017-08-26T20:35:39.014Z,18.12
2017-08-26T20:37:00.863Z,18.14
2017-08-26T20:38:23.332Z,18.2
2017-08-26T20:39:45.823Z,18.27
2017-08-26T20:41:08.032Z,18.27
2017-08-26T20:42:30.520Z,18.27
2017-08-26T20:43:52.383Z,18.33
2017-08-26T20:45:14.597Z,18.39
2017-08-26T20:46:37.085Z,18.35
2017-08-26T20:47:58.614Z,18.39
2017-08-26T20:49:20.442Z,18.47
2017-08-26T20:50:42.614Z,18.44
2017-08-26T20:52:05.206Z,18.51
2017-08-26T20:53:27.385Z,18.41
2017-08-26T20:54:48.913Z,18.41
2017-08-26T20:56:11.090Z,18.41
2017-08-26T20:57:33.542Z,18.33
2017-08-26T20:58:56.154Z,18.37
2017-08-26T21:00:18.364Z,18.32
2017-08-26T21:01:40.922Z,18.33
2017-08-26T21:03:03.485Z,18.29
2017-08-26T21:04:25.346Z,18.3
2017-08-26T21:05:47.545Z,18.36
2017-08-26T21:07:10.065Z,18.35
2017-08-26T21:08:32.933Z,18.3
2017-08-26T21:09:54.752Z,18.27
2017-08-26T21:11:16.914Z,18.25
2017-08-26T21:12:39.165Z,18.12
2017-08-26T21:14:02.013Z,18.32
2017-08-26T21:15:23.872Z,18.15
2017-08-26T21:16:46.189Z,18.14
2017-08-26T21:18:08.144Z,18.11
2017-08-26T21:19:30.987Z,18.14
2017-08-26T21:20:53.155Z,18.21
2017-08-26T21:22:15.645Z,18.26
2017-08-26T21:23:37.821Z,18.26
2017-08-26T21:25:00.087Z,18.27
2017-08-26T21:26:22.282Z,18.2
2017-08-26T21:27:44.546Z,18.25
2017-08-26T21:29:06.384Z,18.18
2017-08-26T21:30:29.179Z,18.23
2017-08-26T21:31:51.672Z,18.21
2017-08-26T21:33:14.202Z,18.2
2017-08-26T21:34:36.042Z,18.25
2017-08-26T21:35:58.553Z,18.2
2017-08-26T21:37:20.390Z,18.2
2017-08-26T21:38:42.551Z,18.25
2017-08-26T21:40:04.377Z,18.25
2017-08-26T21:41:26.881Z,18.21
2017-08-26T21:42:49.053Z,18.23
2017-08-26T21:44:11.263Z,18.23
2017-08-26T21:45:33.212Z,18.26
2017-08-26T21:46:55.411Z,18.25
2017-08-26T21:48:17.983Z,18.2
2017-08-26T21:49:40.164Z,18.29
2017-08-26T21:51:02.672Z,18.25
2017-08-26T21:52:25.293Z,18.27
2017-08-26T21:53:47.574Z,18.2
2017-08-26T21:55:09.747Z,18.27
2017-08-26T21:56:31.623Z,18.23
2017-08-26T21:57:54.353Z,18.26
2017-08-26T21:59:16.585Z,18.25
2017-08-26T22:00:39.049Z,18.3
2017-08-26T22:02:00.889Z,18.23
2017-08-26T22:03:23.036Z,18.26
2017-08-26T22:04:45.495Z,18.21
2017-08-26T22:06:08.218Z,18.15
2017-08-26T22:07:30.094Z,18.26
2017-08-26T22:08:52.686Z,18.23
2017-08-26T22:10:15.161Z,18.2
2017-08-26T22:11:37.520Z,18.14
2017-08-26T22:13:00.058Z,18.15
2017-08-26T22:14:22.610Z,18.17
2017-08-26T22:15:44.791Z,18.11
2017-08-26T22:17:06.314Z,18.14
2017-08-26T22:18:28.811Z,18.14
2017-08-26T22:19:51.655Z,18.08
2017-08-26T22:21:13.829Z,18.05
2017-08-26T22:22:36.315Z,18.11
2017-08-26T22:23:58.482Z,18.07
2017-08-26T22:25:21.109Z,18.08
2017-08-26T22:26:43.319Z,18.02
2017-08-26T22:28:05.463Z,17.96
2017-08-26T22:29:27.688Z,17.95
2017-08-26T22:30:50.196Z,17.89
2017-08-26T22:32:12.376Z,17.93
2017-08-26T22:33:34.875Z,17.9
2017-08-26T22:34:57.418Z,17.93
2017-08-26T22:36:19.880Z,17.87
2017-08-26T22:37:42.108Z,17.84
2017-08-26T22:39:04.253Z,17.9
2017-08-26T22:40:26.523Z,17.84
2017-08-26T22:41:48.956Z,17.78
2017-08-26T22:43:10.791Z,17.81
2017-08-26T22:44:33.283Z,17.66
2017-08-26T22:45:55.488Z,17.62
2017-08-26T22:47:17.994Z,17.68
2017-08-26T22:48:40.172Z,17.64
2017-08-26T22:50:01.693Z,17.62
2017-08-26T22:51:23.533Z,17.62
2017-08-26T22:52:46.010Z,17.55
2017-08-26T22:54:08.164Z,17.59
2017-08-26T22:55:30.333Z,17.62
2017-08-26T22:56:51.858Z,17.59
2017-08-26T22:58:14.004Z,17.71
2017-08-26T22:59:36.482Z,17.64
2017-08-26T23:00:58.322Z,17.58
2017-08-26T23:02:20.161Z,17.51
2017-08-26T23:03:42.694Z,17.56
2017-08-26T23:05:05.334Z,17.51
2017-08-26T23:06:27.787Z,17.49
2017-08-26T23:07:49.974Z,17.31
2017-08-26T23:09:13.262Z,17.22
2017-08-26T23:10:34.893Z,17.15
2017-08-26T23:11:57.053Z,17.06
2017-08-26T23:13:19.233Z,16.94
2017-08-26T23:14:42.082Z,16.91
2017-08-26T23:16:04.324Z,16.94
2017-08-26T23:17:25.833Z,16.78
2017-08-26T23:18:47.683Z,16.68
2017-08-26T23:20:10.496Z,16.61
2017-08-26T23:21:32.960Z,16.57
2017-08-26T23:22:55.291Z,16.45
2017-08-26T23:24:17.173Z,16.39
2017-08-26T23:25:39.375Z,16.3
2017-08-26T23:27:01.932Z,16.28
2017-08-26T23:28:24.263Z,16.25
2017-08-26T23:29:46.104Z,16.2
2017-08-26T23:31:08.869Z,16.07
2017-08-26T23:32:30.713Z,16.11
2017-08-26T23:33:52.852Z,16.05
2017-08-26T23:35:14.672Z,16
2017-08-26T23:36:36.201Z,15.87
2017-08-26T23:37:58.783Z,15.92
2017-08-26T23:39:20.946Z,15.82
2017-08-26T23:40:43.552Z,15.76
2017-08-26T23:42:04.863Z,15.72
2017-08-26T23:43:26.695Z,15.65
2017-08-26T23:44:48.538Z,15.62
2017-08-26T23:46:10.690Z,15.57
2017-08-26T23:47:33.273Z,15.6
2017-08-26T23:48:55.236Z,15.47
2017-08-26T23:50:17.402Z,15.41
2017-08-26T23:51:39.565Z,15.36
2017-08-26T23:53:02.069Z,15.41
2017-08-26T23:54:24.210Z,15.31
2017-08-26T23:55:45.403Z,15.25
2017-08-26T23:57:07.945Z,15.19
2017-08-26T23:58:29.832Z,15.19
2017-08-26T23:59:51.981Z,15.17
